Time;durP1;ratioP1;P1;durP2;ratioP2;P2;SDS_P1;SDS_P2;PMS_P1;PMS_P2;Temp;Humidity;BMP_temperature;BMP_pressure;BME280_temperature;BME280_humidity;BME280_pressure;Samples;Min_cycle;Max_cycle;Signal;HPM_P1;HPM_P2
2021/09/03 00:02:13;;;;;;;1.00;1.00;;;15.10;74.70;;;;;;5065160;28;20190;-73
2021/09/03 00:04:40;;;;;;;0.80;0.80;;;15.10;74.60;;;;;;5070202;28;20182;-73
2021/09/03 00:07:06;;;;;;;1.17;1.17;;;15.00;75.40;;;;;;5064396;28;20206;-72
2021/09/03 00:09:32;;;;;;;1.20;1.20;;;14.90;75.80;;;;;;5063753;28;20229;-73
2021/09/03 00:11:58;;;;;;;0.98;0.98;;;14.90;76.00;;;;;;5063823;28;20182;-73
2021/09/03 00:14:24;;;;;;;1.42;1.10;;;14.90;76.00;;;;;;5063111;28;20184;-72
2021/09/03 00:16:49;;;;;;;1.35;1.25;;;14.80;75.70;;;;;;5060129;28;20187;-73
2021/09/03 00:19:15;;;;;;;1.00;1.00;;;14.80;75.80;;;;;;5068475;28;20703;-73
2021/09/03 00:21:41;;;;;;;1.10;1.10;;;14.80;76.40;;;;;;5070383;28;20652;-73
2021/09/03 00:24:07;;;;;;;1.27;1.27;;;14.70;76.60;;;;;;5070350;28;20589;-74
2021/09/03 00:26:32;;;;;;;0.98;0.98;;;14.70;76.90;;;;;;5054042;28;20554;-74
2021/09/03 00:28:58;;;;;;;1.60;1.00;;;14.70;76.80;;;;;;5065279;28;20234;-74
2021/09/03 00:31:24;;;;;;;1.48;1.00;;;14.70;76.70;;;;;;5064798;28;20202;-74
2021/09/03 00:33:49;;;;;;;0.82;0.82;;;14.60;77.00;;;;;;5070779;28;20253;-73
2021/09/03 00:36:15;;;;;;;1.05;1.05;;;14.60;77.00;;;;;;5073627;28;20186;-74
2021/09/03 00:38:41;;;;;;;1.50;1.38;;;14.50;78.30;;;;;;5065521;28;20220;-74
2021/09/03 00:41:07;;;;;;;3.28;1.00;;;14.50;77.80;;;;;;5071362;28;20182;-73
2021/09/03 00:43:32;;;;;;;1.67;1.15;;;14.50;77.70;;;;;;5065296;28;20183;-73
2021/09/03 00:45:58;;;;;;;1.02;1.02;;;14.50;77.30;;;;;;5065190;28;20217;-73
2021/09/03 00:48:24;;;;;;;2.10;1.60;;;14.50;77.50;;;;;;5066250;28;20264;-74
2021/09/03 00:50:52;;;;;;;1.40;1.27;;;14.40;78.10;;;;;;5066090;28;20226;-74
2021/09/03 00:53:18;;;;;;;1.13;1.08;;;14.40;78.50;;;;;;5066477;28;21690;-74
2021/09/03 00:55:44;;;;;;;1.35;1.35;;;14.30;78.60;;;;;;5065510;28;20175;-73
2021/09/03 00:58:10;;;;;;;1.42;1.33;;;14.30;78.40;;;;;;5069204;28;20182;-74
2021/09/03 01:00:35;;;;;;;0.93;0.93;;;14.30;78.70;;;;;;5065341;28;20183;-73
2021/09/03 01:03:03;;;;;;;1.00;1.00;;;14.20;78.20;;;;;;5071723;28;20182;-72
2021/09/03 01:05:29;;;;;;;1.58;1.27;;;14.20;78.40;;;;;;5068191;28;20623;-74
2021/09/03 01:07:55;;;;;;;1.40;1.40;;;14.20;78.50;;;;;;5070049;28;20262;-73
2021/09/03 01:10:22;;;;;;;1.13;1.13;;;14.20;78.80;;;;;;5065562;28;20295;-74
2021/09/03 01:12:49;;;;;;;1.10;1.02;;;14.10;79.70;;;;;;5069822;28;20185;-73
2021/09/03 01:15:16;;;;;;;1.13;1.13;;;14.10;80.10;;;;;;5066692;28;20190;-73
2021/09/03 01:17:42;;;;;;;1.63;1.58;;;14.10;79.70;;;;;;5074417;28;20174;-73
2021/09/03 01:20:09;;;;;;;1.30;1.17;;;14.00;79.70;;;;;;5070021;28;20182;-73
2021/09/03 01:22:35;;;;;;;1.08;0.98;;;14.00;79.60;;;;;;5070394;28;20257;-73
2021/09/03 01:25:01;;;;;;;1.05;1.05;;;14.00;80.20;;;;;;5061449;28;20669;-73
2021/09/03 01:27:27;;;;;;;1.85;1.00;;;13.90;81.20;;;;;;5070100;28;20809;-74
2021/09/03 01:29:53;;;;;;;1.25;1.25;;;13.90;80.70;;;;;;5070673;28;20217;-73
2021/09/03 01:32:19;;;;;;;1.65;1.30;;;13.80;80.80;;;;;;5066955;28;20202;-73
2021/09/03 01:34:45;;;;;;;1.30;1.20;;;13.80;80.20;;;;;;5072247;28;20189;-75
2021/09/03 01:37:11;;;;;;;1.05;1.05;;;13.80;80.20;;;;;;5062819;28;20618;-74
2021/09/03 01:39:37;;;;;;;1.02;1.02;;;13.80;80.20;;;;;;5074744;28;20183;-74
2021/09/03 01:42:03;;;;;;;1.17;1.17;;;13.80;80.60;;;;;;5055713;28;20193;-74
2021/09/03 01:44:29;;;;;;;1.30;1.30;;;13.80;80.60;;;;;;5069019;28;20185;-73
2021/09/03 01:46:55;;;;;;;1.20;1.20;;;13.70;80.80;;;;;;5066822;28;20183;-74
2021/09/03 01:49:21;;;;;;;1.30;1.30;;;13.70;81.50;;;;;;5062325;28;20210;-73
2021/09/03 01:51:47;;;;;;;1.98;1.60;;;13.60;81.50;;;;;;5062759;28;20610;-74
2021/09/03 01:54:13;;;;;;;1.30;1.30;;;13.50;82.30;;;;;;5069747;28;20193;-73
2021/09/03 01:56:38;;;;;;;1.25;1.25;;;13.50;82.40;;;;;;5068152;28;20183;-73
2021/09/03 01:59:04;;;;;;;1.45;0.95;;;13.50;82.40;;;;;;5070649;28;20626;-74
2021/09/03 02:01:30;;;;;;;1.60;1.50;;;13.40;82.80;;;;;;5069643;28;20182;-74
2021/09/03 02:03:56;;;;;;;2.13;1.48;;;13.40;82.60;;;;;;5073283;28;20174;-74
2021/09/03 02:06:23;;;;;;;1.30;1.30;;;13.30;82.50;;;;;;5063416;28;20190;-73
2021/09/03 02:08:49;;;;;;;1.17;1.17;;;13.30;82.80;;;;;;5066281;28;20762;-73
2021/09/03 02:11:15;;;;;;;1.10;1.10;;;13.30;82.60;;;;;;5072204;28;20306;-74
2021/09/03 02:13:41;;;;;;;1.50;1.40;;;13.30;82.60;;;;;;5074193;28;20192;-74
2021/09/03 02:16:07;;;;;;;1.35;1.35;;;13.20;82.50;;;;;;5066785;28;20182;-74
2021/09/03 02:18:32;;;;;;;1.23;1.23;;;13.20;82.80;;;;;;5076560;28;20174;-74
2021/09/03 02:20:59;;;;;;;1.73;1.45;;;13.20;82.60;;;;;;5074896;28;20180;-74
2021/09/03 02:23:26;;;;;;;1.40;1.38;;;13.20;82.30;;;;;;5080965;28;20680;-74
2021/09/03 02:25:51;;;;;;;1.88;1.77;;;13.20;82.40;;;;;;5070572;28;20182;-74
2021/09/03 02:28:18;;;;;;;1.50;1.48;;;13.10;82.70;;;;;;5063925;28;20187;-74
2021/09/03 02:30:45;;;;;;;1.58;1.48;;;13.10;82.40;;;;;;5073133;28;20206;-74
2021/09/03 02:33:11;;;;;;;4.13;1.67;;;13.10;82.70;;;;;;5073932;28;20657;-74
2021/09/03 02:35:38;;;;;;;1.45;1.33;;;13.10;83.00;;;;;;5061281;28;20766;-73
2021/09/03 02:38:04;;;;;;;1.33;1.33;;;13.10;83.00;;;;;;5070185;28;20174;-74
2021/09/03 02:40:30;;;;;;;1.58;1.58;;;13.00;83.30;;;;;;5067815;28;20633;-73
2021/09/03 02:42:56;;;;;;;2.80;1.42;;;13.00;83.10;;;;;;5069198;28;20183;-74
2021/09/03 02:45:22;;;;;;;1.67;1.58;;;13.00;83.00;;;;;;5063151;28;20237;-73
2021/09/03 02:47:48;;;;;;;1.67;1.58;;;13.10;82.90;;;;;;5071422;28;20731;-73
2021/09/03 02:50:14;;;;;;;1.20;1.20;;;13.00;82.90;;;;;;5070448;28;20260;-74
2021/09/03 02:52:40;;;;;;;1.50;1.50;;;13.00;82.80;;;;;;5069141;28;20187;-73
2021/09/03 02:55:07;;;;;;;1.35;1.35;;;13.00;83.00;;;;;;5068799;28;20241;-74
2021/09/03 02:57:33;;;;;;;1.17;1.17;;;13.00;83.00;;;;;;5066085;28;20182;-73
2021/09/03 02:59:58;;;;;;;1.70;1.60;;;13.00;83.40;;;;;;5075502;28;20696;-73
2021/09/03 03:02:24;;;;;;;1.30;1.27;;;12.90;83.70;;;;;;5067055;28;20166;-72
2021/09/03 03:04:50;;;;;;;1.00;1.00;;;12.90;83.40;;;;;;5065907;28;20717;-73
2021/09/03 03:07:16;;;;;;;1.25;1.25;;;12.90;83.70;;;;;;5068451;28;20185;-73
2021/09/03 03:09:42;;;;;;;1.50;1.40;;;12.90;83.40;;;;;;5066581;28;20219;-73
2021/09/03 03:12:08;;;;;;;1.67;1.45;;;12.90;83.80;;;;;;5065792;28;20268;-73
2021/09/03 03:14:33;;;;;;;1.65;1.55;;;12.80;84.50;;;;;;5073553;28;20186;-73
2021/09/03 03:17:03;;;;;;;1.75;1.63;;;12.80;84.10;;;;;;5068723;28;20220;-73
2021/09/03 03:19:30;;;;;;;1.95;1.92;;;12.80;83.80;;;;;;5068867;28;20196;-73
2021/09/03 03:21:57;;;;;;;1.60;1.50;;;12.80;83.80;;;;;;5071384;28;20186;-73
2021/09/03 03:24:23;;;;;;;2.88;1.25;;;12.80;83.60;;;;;;5076309;28;20196;-73
2021/09/03 03:26:49;;;;;;;1.33;1.17;;;12.80;84.20;;;;;;5062692;28;20187;-73
2021/09/03 03:29:16;;;;;;;2.80;1.55;;;12.80;84.60;;;;;;5075707;28;20221;-73
2021/09/03 03:31:41;;;;;;;1.58;1.48;;;12.70;84.60;;;;;;5061997;28;20279;-73
2021/09/03 03:34:09;;;;;;;1.40;1.40;;;12.70;84.50;;;;;;5079893;28;20245;-73
2021/09/03 03:36:35;;;;;;;2.00;1.90;;;12.70;84.50;;;;;;5057470;28;20241;-73
2021/09/03 03:39:01;;;;;;;2.75;1.55;;;12.70;84.70;;;;;;5076185;28;20179;-73
2021/09/03 03:41:27;;;;;;;2.10;1.50;;;12.70;84.70;;;;;;5062855;28;20814;-73
2021/09/03 03:43:52;;;;;;;1.67;1.58;;;12.70;84.60;;;;;;5068287;28;20211;-73
2021/09/03 03:46:18;;;;;;;2.15;2.03;;;12.60;84.90;;;;;;5068229;28;20182;-73
2021/09/03 03:48:44;;;;;;;4.18;2.60;;;12.60;85.10;;;;;;5066397;28;20296;-72
2021/09/03 03:51:10;;;;;;;2.30;2.10;;;12.60;85.10;;;;;;5063163;28;20535;-72
2021/09/03 03:53:36;;;;;;;2.00;1.80;;;12.60;85.30;;;;;;5068589;28;20178;-73
2021/09/03 03:56:02;;;;;;;2.50;2.30;;;12.50;85.70;;;;;;5067419;28;20179;-73
2021/09/03 03:58:27;;;;;;;2.50;2.40;;;12.50;85.70;;;;;;5068476;28;20574;-73
2021/09/03 04:00:53;;;;;;;1.63;1.52;;;12.50;85.50;;;;;;5060304;28;20190;-73
2021/09/03 04:03:19;;;;;;;1.73;1.50;;;12.50;85.60;;;;;;5065098;28;20266;-73
2021/09/03 04:05:44;;;;;;;1.50;1.50;;;12.50;85.50;;;;;;5061450;28;20186;-73
2021/09/03 04:08:10;;;;;;;3.05;2.20;;;12.50;85.50;;;;;;5072148;28;20660;-73
2021/09/03 04:10:36;;;;;;;1.73;1.63;;;12.50;85.40;;;;;;5069162;28;20239;-73
2021/09/03 04:13:02;;;;;;;3.45;1.95;;;12.50;85.70;;;;;;5069225;28;20343;-73
2021/09/03 04:15:28;;;;;;;4.63;1.63;;;12.50;85.70;;;;;;5062185;28;20191;-73
2021/09/03 04:17:53;;;;;;;1.70;1.60;;;12.50;85.90;;;;;;5063378;28;20192;-73
2021/09/03 04:20:19;;;;;;;2.65;1.58;;;12.50;85.90;;;;;;5070772;28;20205;-73
2021/09/03 04:22:45;;;;;;;1.50;1.50;;;12.50;85.90;;;;;;5068612;28;20255;-73
2021/09/03 04:25:11;;;;;;;1.70;1.60;;;12.50;85.80;;;;;;5071303;28;20199;-73
2021/09/03 04:27:39;;;;;;;1.20;1.20;;;12.50;85.60;;;;;;5068579;28;20186;-74
2021/09/03 04:30:05;;;;;;;1.98;1.60;;;12.50;85.60;;;;;;5065776;28;20210;-73
2021/09/03 04:32:31;;;;;;;2.63;1.88;;;12.60;85.50;;;;;;5071032;28;20257;-73
2021/09/03 04:34:57;;;;;;;2.65;1.88;;;12.60;85.40;;;;;;5067602;28;20270;-73
2021/09/03 04:37:23;;;;;;;1.52;1.42;;;12.60;85.40;;;;;;5060831;28;20183;-73
2021/09/03 04:39:48;;;;;;;1.75;1.70;;;12.70;85.50;;;;;;5069604;28;20261;-73
2021/09/03 04:42:14;;;;;;;1.85;1.80;;;12.70;85.50;;;;;;5061296;28;20179;-74
2021/09/03 04:44:40;;;;;;;2.22;2.13;;;12.70;85.50;;;;;;5072511;28;20242;-72
2021/09/03 04:47:06;;;;;;;3.88;1.67;;;12.70;85.70;;;;;;5069731;28;20569;-73
2021/09/03 04:49:31;;;;;;;1.85;1.67;;;12.80;85.70;;;;;;5065528;28;20233;-73
2021/09/03 04:51:57;;;;;;;1.58;1.48;;;12.80;85.60;;;;;;5062419;28;20906;-73
2021/09/03 04:54:23;;;;;;;1.90;1.90;;;12.80;85.60;;;;;;5074560;28;20179;-74
2021/09/03 04:56:49;;;;;;;1.85;1.75;;;12.90;85.50;;;;;;5064767;28;20183;-73
2021/09/03 04:59:15;;;;;;;1.70;1.60;;;12.90;85.50;;;;;;5068870;28;20291;-73
2021/09/03 05:01:41;;;;;;;1.67;1.60;;;12.90;85.30;;;;;;5071235;28;20236;-73
2021/09/03 05:04:07;;;;;;;1.63;1.38;;;13.00;85.20;;;;;;5074215;28;20201;-73
2021/09/03 05:06:32;;;;;;;2.33;2.13;;;13.00;85.20;;;;;;5069674;28;20207;-72
2021/09/03 05:08:58;;;;;;;1.45;1.42;;;13.00;85.20;;;;;;5070294;28;20189;-72
2021/09/03 05:11:24;;;;;;;1.52;1.52;;;13.10;86.00;;;;;;5067242;28;20282;-73
2021/09/03 05:13:49;;;;;;;4.57;1.95;;;13.10;85.80;;;;;;5067402;28;20205;-73
2021/09/03 05:16:15;;;;;;;1.55;1.55;;;13.10;85.50;;;;;;5066735;28;20183;-74
2021/09/03 05:18:41;;;;;;;2.30;2.10;;;13.20;85.40;;;;;;5074176;28;20735;-74
2021/09/03 05:21:07;;;;;;;2.47;1.88;;;13.20;85.40;;;;;;5072504;28;20277;-73
2021/09/03 05:23:34;;;;;;;3.15;2.55;;;13.30;85.40;;;;;;5077353;28;20245;-73
2021/09/03 05:26:00;;;;;;;2.20;2.10;;;13.30;85.90;;;;;;5070991;28;20185;-73
2021/09/03 05:28:27;;;;;;;2.75;2.08;;;13.30;85.30;;;;;;5065713;28;20209;-73
2021/09/03 05:30:53;;;;;;;2.85;2.58;;;13.40;85.20;;;;;;5069303;28;20223;-73
2021/09/03 05:33:19;;;;;;;4.25;2.22;;;13.40;85.20;;;;;;5074194;28;20191;-73
2021/09/03 05:35:45;;;;;;;2.30;2.20;;;13.50;85.20;;;;;;5066328;28;20211;-73
2021/09/03 05:38:11;;;;;;;2.45;2.30;;;13.50;85.10;;;;;;5073859;28;20182;-74
2021/09/03 05:40:37;;;;;;;3.83;2.70;;;13.60;85.00;;;;;;5079478;28;20269;-72
2021/09/03 05:43:03;;;;;;;2.30;2.10;;;13.60;85.00;;;;;;5070212;28;20186;-73
2021/09/03 05:45:29;;;;;;;2.65;2.45;;;13.70;85.20;;;;;;5079800;28;20241;-74
2021/09/03 05:47:55;;;;;;;2.92;2.60;;;13.70;85.00;;;;;;5066658;28;20186;-74
2021/09/03 05:50:21;;;;;;;2.05;2.03;;;13.80;85.20;;;;;;5063358;28;20741;-73
2021/09/03 05:52:47;;;;;;;3.15;2.95;;;13.80;84.50;;;;;;5066530;28;20233;-74
2021/09/03 05:55:13;;;;;;;3.17;2.42;;;13.90;84.30;;;;;;5066505;28;20186;-74
2021/09/03 05:57:39;;;;;;;2.80;2.65;;;13.90;84.50;;;;;;5072929;28;20266;-74
2021/09/03 06:00:05;;;;;;;2.45;2.35;;;14.00;84.60;;;;;;5074795;28;20190;-74
2021/09/03 06:02:31;;;;;;;4.78;3.45;;;14.10;84.50;;;;;;5075925;28;20691;-74
2021/09/03 06:04:57;;;;;;;3.63;2.47;;;14.10;84.20;;;;;;5077115;28;20198;-74
2021/09/03 06:07:23;;;;;;;4.25;2.95;;;14.10;84.00;;;;;;5076136;28;20187;-74
2021/09/03 06:09:49;;;;;;;2.58;2.35;;;14.20;83.30;;;;;;5074432;28;20209;-74
2021/09/03 06:12:14;;;;;;;2.30;2.20;;;14.20;83.50;;;;;;5075518;28;20657;-74
2021/09/03 06:14:40;;;;;;;2.70;2.50;;;14.30;83.60;;;;;;5075644;28;20201;-74
2021/09/03 06:17:06;;;;;;;2.80;2.60;;;14.30;83.30;;;;;;5082192;28;20182;-74
2021/09/03 06:19:33;;;;;;;2.42;2.40;;;14.40;83.40;;;;;;5074782;28;20187;-74
2021/09/03 06:22:00;;;;;;;3.42;2.33;;;14.50;83.20;;;;;;5068534;28;20199;-74
2021/09/03 06:24:30;;;;;;;3.85;2.95;;;14.50;83.10;;;;;;5073848;28;20177;-74
2021/09/03 06:27:01;;;;;;;3.60;3.35;;;14.50;82.00;;;;;;5078810;28;20170;-74
2021/09/03 06:29:43;;;;;;;3.28;2.75;;;14.60;81.70;;;;;;5074542;28;20207;-74
2021/09/03 06:32:15;;;;;;;3.00;2.80;;;14.70;81.80;;;;;;5068632;28;20969;-74
2021/09/03 06:34:56;;;;;;;3.60;3.05;;;14.70;81.60;;;;;;5079930;28;20311;-74
2021/09/03 06:37:23;;;;;;;3.00;2.70;;;14.80;81.40;;;;;;5072316;28;20632;-74
2021/09/03 06:39:49;;;;;;;4.55;3.10;;;14.90;81.50;;;;;;5074146;28;20202;-74
2021/09/03 06:42:15;;;;;;;2.63;2.40;;;14.90;81.50;;;;;;5075291;28;20258;-75
2021/09/03 06:44:42;;;;;;;3.65;2.97;;;15.00;81.40;;;;;;5071904;28;20201;-74
2021/09/03 06:47:08;;;;;;;3.30;3.00;;;15.00;80.70;;;;;;5072222;28;20182;-74
2021/09/03 06:49:34;;;;;;;2.65;2.45;;;15.10;80.40;;;;;;5072317;28;20295;-74
2021/09/03 06:52:01;;;;;;;2.25;2.15;;;15.20;80.50;;;;;;5073169;28;20626;-74
2021/09/03 06:54:28;;;;;;;2.83;2.67;;;15.20;80.70;;;;;;5071303;28;20175;-74
2021/09/03 06:56:54;;;;;;;2.95;2.75;;;15.30;80.40;;;;;;5070676;28;20531;-73
2021/09/03 06:59:19;;;;;;;4.18;2.33;;;15.40;80.10;;;;;;5077678;28;20261;-73
2021/09/03 07:01:45;;;;;;;7.88;3.22;;;15.50;80.10;;;;;;5073762;28;20178;-73
2021/09/03 07:04:11;;;;;;;3.17;2.97;;;15.50;79.80;;;;;;5074629;28;20231;-73
2021/09/03 07:06:36;;;;;;;3.10;2.92;;;15.60;79.60;;;;;;5074416;28;20179;-73
2021/09/03 07:09:06;;;;;;;2.83;2.63;;;15.70;79.60;;;;;;5071406;28;20887;-73
2021/09/03 07:11:33;;;;;;;3.28;3.05;;;15.80;79.60;;;;;;5069578;28;20179;-72
2021/09/03 07:13:59;;;;;;;3.08;2.83;;;15.90;79.30;;;;;;5065498;28;20194;-73
2021/09/03 07:16:25;;;;;;;4.65;3.38;;;15.90;79.30;;;;;;5067555;28;20638;-73
2021/09/03 07:18:51;;;;;;;5.30;3.33;;;16.00;79.30;;;;;;5069347;28;21581;-73
2021/09/03 07:21:17;;;;;;;3.47;3.17;;;16.10;79.20;;;;;;5070099;28;20181;-73
2021/09/03 07:23:43;;;;;;;2.85;2.63;;;16.20;79.00;;;;;;5070789;28;20210;-73
2021/09/03 07:26:08;;;;;;;2.85;2.65;;;16.30;79.00;;;;;;5072351;28;20219;-73
2021/09/03 07:28:34;;;;;;;2.80;2.70;;;16.40;78.50;;;;;;5062135;28;20194;-73
2021/09/03 07:31:00;;;;;;;2.17;2.08;;;16.40;77.50;;;;;;5067198;28;20203;-73
2021/09/03 07:33:25;;;;;;;2.78;2.67;;;16.50;77.50;;;;;;5071063;28;20256;-73
2021/09/03 07:35:51;;;;;;;3.13;2.85;;;16.60;77.80;;;;;;5069681;28;20231;-73
2021/09/03 07:38:18;;;;;;;2.15;2.00;;;16.70;77.70;;;;;;5070122;28;20178;-73
2021/09/03 07:40:43;;;;;;;3.42;3.10;;;16.80;77.30;;;;;;5067734;28;20262;-73
2021/09/03 07:43:09;;;;;;;5.63;2.60;;;16.90;77.10;;;;;;5066883;28;20258;-73
2021/09/03 07:45:36;;;;;;;3.20;3.00;;;17.00;76.90;;;;;;5074306;28;20681;-74
2021/09/03 07:48:02;;;;;;;2.67;2.47;;;17.10;76.60;;;;;;5071411;28;20197;-73
2021/09/03 07:50:29;;;;;;;5.15;2.85;;;17.20;76.40;;;;;;5067290;28;20687;-74
2021/09/03 07:52:55;;;;;;;2.95;2.75;;;17.30;76.20;;;;;;5064870;28;20183;-74
2021/09/03 07:55:21;;;;;;;2.90;2.67;;;17.40;74.50;;;;;;5067185;28;20189;-74
2021/09/03 07:57:47;;;;;;;3.42;2.35;;;17.50;74.00;;;;;;5071616;28;20221;-75
2021/09/03 08:00:13;;;;;;;9.13;3.17;;;17.50;74.30;;;;;;5068808;28;20724;-75
2021/09/03 08:02:39;;;;;;;2.92;2.72;;;17.70;74.10;;;;;;5070157;28;20184;-73
2021/09/03 08:05:05;;;;;;;3.60;2.70;;;17.70;73.90;;;;;;5073752;28;20175;-73
2021/09/03 08:07:32;;;;;;;2.72;2.55;;;17.90;74.20;;;;;;5067028;28;20196;-73
2021/09/03 08:09:58;;;;;;;2.25;2.15;;;18.00;74.00;;;;;;5073961;28;20249;-73
2021/09/03 08:12:24;;;;;;;2.53;2.33;;;18.20;73.30;;;;;;5066077;28;20269;-73
2021/09/03 08:14:50;;;;;;;2.08;1.98;;;18.30;72.00;;;;;;5074573;28;20269;-73
2021/09/03 08:17:16;;;;;;;4.20;2.13;;;18.40;72.00;;;;;;5071193;28;20174;-74
2021/09/03 08:19:43;;;;;;;3.13;1.83;;;18.60;71.50;;;;;;5072092;28;20828;-74
2021/09/03 08:22:09;;;;;;;2.53;2.28;;;18.70;71.30;;;;;;5069876;28;20201;-73
2021/09/03 08:24:35;;;;;;;2.25;2.15;;;18.90;71.40;;;;;;5071718;28;20498;-73
2021/09/03 08:27:01;;;;;;;2.80;2.38;;;19.00;70.20;;;;;;5075035;28;20186;-74
2021/09/03 08:29:27;;;;;;;1.65;1.50;;;19.10;69.80;;;;;;5074434;28;20203;-74
2021/09/03 08:31:53;;;;;;;2.15;1.75;;;19.30;70.30;;;;;;5069761;28;20716;-74
2021/09/03 08:34:18;;;;;;;2.60;2.40;;;19.40;70.00;;;;;;5070376;28;20179;-74
2021/09/03 08:36:44;;;;;;;8.38;2.20;;;19.60;70.30;;;;;;5074465;28;20682;-74
2021/09/03 08:39:10;;;;;;;2.35;2.20;;;19.90;69.00;;;;;;5069511;28;20240;-74
2021/09/03 08:41:37;;;;;;;3.15;2.15;;;20.10;68.50;;;;;;5068911;28;20541;-74
2021/09/03 08:44:03;;;;;;;2.13;2.03;;;20.30;67.00;;;;;;5076191;28;20273;-74
2021/09/03 08:46:30;;;;;;;2.38;2.28;;;20.60;66.70;;;;;;5066963;28;20205;-74
2021/09/03 08:48:56;;;;;;;2.60;2.40;;;21.00;65.30;;;;;;5069062;28;20179;-74
2021/09/03 08:51:23;;;;;;;3.00;2.47;;;21.30;65.50;;;;;;5073594;28;20185;-74
2021/09/03 08:53:49;;;;;;;2.42;2.22;;;21.90;64.60;;;;;;5067390;28;20237;-74
2021/09/03 08:56:19;;;;;;;3.03;2.83;;;22.40;63.40;;;;;;5071684;28;22344;-74
2021/09/03 08:58:44;;;;;;;2.10;2.00;;;22.80;63.00;;;;;;5070826;28;20171;-74
2021/09/03 09:01:12;;;;;;;3.03;2.55;;;23.30;61.70;;;;;;5068717;28;20254;-74
2021/09/03 09:03:43;;;;;;;2.17;2.08;;;23.90;61.70;;;;;;5069647;28;20190;-74
2021/09/03 09:06:11;;;;;;;4.35;2.33;;;24.70;59.90;;;;;;5068216;28;20560;-74
2021/09/03 09:08:38;;;;;;;2.17;2.08;;;25.60;57.70;;;;;;5069426;28;20266;-74
2021/09/03 09:11:10;;;;;;;2.38;2.20;;;26.60;57.60;;;;;;5062634;28;20221;-75
2021/09/03 09:13:42;;;;;;;3.50;2.03;;;27.50;55.80;;;;;;5071019;28;20197;-74
2021/09/03 09:16:17;;;;;;;1.90;1.80;;;28.00;54.20;;;;;;5066800;28;20171;-74
2021/09/03 09:18:44;;;;;;;2.28;2.17;;;28.30;53.20;;;;;;5053260;28;20845;-75
2021/09/03 09:21:20;;;;;;;2.10;2.00;;;28.80;52.30;;;;;;5063700;28;20837;-73
2021/09/03 09:23:51;;;;;;;2.08;1.98;;;29.00;51.40;;;;;;5060363;28;20194;-74
2021/09/03 09:26:20;;;;;;;2.08;1.75;;;29.00;52.20;;;;;;5069550;28;20190;-73
2021/09/03 09:28:47;;;;;;;5.07;2.22;;;28.90;52.00;;;;;;5062574;28;20652;-74
2021/09/03 09:31:30;;;;;;;2.08;1.98;;;28.60;52.80;;;;;;5065780;28;20222;-73
2021/09/03 09:33:58;;;;;;;2.65;1.88;;;28.40;52.80;;;;;;5066632;28;20240;-73
2021/09/03 09:36:31;;;;;;;2.25;2.05;;;28.30;52.80;;;;;;5070752;28;20226;-74
2021/09/03 09:38:58;;;;;;;2.25;2.15;;;28.30;53.20;;;;;;5069010;28;20178;-74
2021/09/03 09:41:25;;;;;;;2.13;1.90;;;28.40;52.60;;;;;;5063386;28;20186;-74
2021/09/03 09:43:51;;;;;;;2.15;2.05;;;28.70;51.60;;;;;;5057759;28;20246;-74
2021/09/03 09:46:22;;;;;;;1.98;1.80;;;29.20;52.20;;;;;;5067141;28;20197;-74
2021/09/03 09:48:51;;;;;;;2.80;1.85;;;29.80;51.40;;;;;;5062209;28;20189;-74
2021/09/03 09:51:21;;;;;;;2.53;1.77;;;30.50;51.50;;;;;;5067575;28;20277;-73
2021/09/03 09:54:00;;;;;;;2.58;1.98;;;31.10;51.50;;;;;;5066991;28;20696;-74
2021/09/03 09:56:28;;;;;;;1.92;1.83;;;31.90;49.80;;;;;;5066778;28;20195;-75
2021/09/03 09:58:55;;;;;;;1.90;1.80;;;32.60;48.90;;;;;;5064910;28;20175;-74
2021/09/03 10:01:22;;;;;;;1.92;1.83;;;33.30;48.00;;;;;;5073534;28;20210;-74
2021/09/03 10:03:49;;;;;;;1.33;1.30;;;33.80;46.10;;;;;;5070298;28;20270;-72
2021/09/03 10:06:20;;;;;;;2.22;2.03;;;34.30;47.00;;;;;;5068584;28;20616;-75
2021/09/03 10:08:48;;;;;;;1.85;1.77;;;34.80;46.10;;;;;;5065290;28;20203;-75
2021/09/03 10:11:15;;;;;;;1.92;1.90;;;35.30;46.00;;;;;;5068084;28;20611;-74
2021/09/03 10:13:41;;;;;;;1.70;1.70;;;35.80;45.50;;;;;;5063578;28;20191;-71
2021/09/03 10:16:07;;;;;;;1.63;1.60;;;36.40;44.90;;;;;;5071090;28;20225;-74
2021/09/03 10:18:34;;;;;;;1.73;1.73;;;36.90;44.10;;;;;;5074059;28;20226;-72
2021/09/03 10:21:03;;;;;;;1.65;1.55;;;37.20;45.30;;;;;;5072962;28;20291;-74
2021/09/03 10:24:03;;;;;;;1.42;1.42;;;37.40;44.40;;;;;;5068241;28;20596;-73
2021/09/03 10:26:37;;;;;;;1.55;1.55;;;37.40;41.10;;;;;;5072844;28;20174;-74
2021/09/03 10:29:15;;;;;;;3.90;1.67;;;37.10;42.50;;;;;;5069680;28;20183;-74
2021/09/03 10:32:10;;;;;;;2.00;1.90;;;37.00;43.60;;;;;;5067797;28;20178;-74
2021/09/03 10:34:50;;;;;;;2.05;1.90;;;37.40;42.80;;;;;;5072858;28;20190;-74
2021/09/03 10:37:15;;;;;;;1.85;1.75;;;37.80;41.60;;;;;;5069731;28;20185;-74
2021/09/03 10:39:55;;;;;;;1.83;1.73;;;37.70;41.60;;;;;;5068902;28;20178;-74
2021/09/03 10:45:18;;;;;;;1.58;1.58;;;36.70;42.10;;;;;;5066482;28;21045;-74
2021/09/03 10:47:47;;;;;;;1.50;1.50;;;36.90;41.90;;;;;;5070763;28;20225;-73
2021/09/03 10:50:36;;;;;;;1.65;1.65;;;36.70;44.80;;;;;;5071231;28;20241;-72
2021/09/03 10:53:07;;;;;;;3.08;2.30;;;36.40;42.70;;;;;;5069393;28;20203;-73
2021/09/03 10:56:05;;;;;;;1.63;1.50;;;36.50;44.30;;;;;;5062856;28;20222;-74
2021/09/03 10:58:36;;;;;;;1.77;1.77;;;37.10;41.90;;;;;;5055278;28;20306;-74
2021/09/03 11:03:46;;;;;;;1.88;1.75;;;38.50;42.40;;;;;;5051259;28;20190;-74
2021/09/03 11:06:24;;;;;;;1.80;1.70;;;38.80;42.10;;;;;;5048841;28;20312;-74
2021/09/03 11:08:52;;;;;;;1.60;1.60;;;39.00;43.00;;;;;;5047905;28;20194;-74
2021/09/03 11:11:28;;;;;;;1.55;1.55;;;39.30;43.10;;;;;;5048375;28;20622;-74
2021/09/03 11:14:17;;;;;;;1.58;1.58;;;38.90;38.70;;;;;;5047084;28;20191;-74
2021/09/03 11:16:45;;;;;;;1.98;1.88;;;38.70;40.10;;;;;;4962417;28;20190;-74
2021/09/03 11:19:16;;;;;;;1.90;1.90;;;38.80;41.90;;;;;;4963521;28;20244;-74
2021/09/03 11:21:44;;;;;;;2.90;1.38;;;38.80;40.80;;;;;;4963644;28;20277;-74
2021/09/03 11:24:13;;;;;;;1.70;1.60;;;38.70;43.20;;;;;;4965402;28;20200;-74
2021/09/03 11:26:39;;;;;;;1.48;1.48;;;38.50;42.20;;;;;;4962370;28;20182;-75
2021/09/03 11:29:17;;;;;;;2.33;1.80;;;38.30;41.50;;;;;;4964259;28;20194;-74
2021/09/03 11:32:09;;;;;;;1.75;1.35;;;38.10;41.60;;;;;;4962398;28;20189;-74
2021/09/03 11:34:52;;;;;;;1.75;1.75;;;38.00;39.80;;;;;;4964960;28;20202;-75
2021/09/03 11:37:18;;;;;;;2.30;1.40;;;38.20;40.80;;;;;;4970704;28;20190;-75
2021/09/03 11:39:44;;;;;;;1.50;1.50;;;38.20;41.30;;;;;;4968569;28;20200;-74
2021/09/03 11:42:22;;;;;;;9.15;1.80;;;38.20;41.50;;;;;;4967582;28;21556;-74
2021/09/03 11:45:04;;;;;;;1.80;1.70;;;38.10;40.60;;;;;;4968049;28;20761;-74
2021/09/03 11:47:46;;;;;;;1.50;1.50;;;37.90;40.70;;;;;;4974207;28;20209;-75
2021/09/03 11:50:18;;;;;;;1.70;1.70;;;37.70;40.70;;;;;;4967387;28;20221;-74
2021/09/03 11:52:45;;;;;;;1.73;1.73;;;36.90;41.90;;;;;;4975184;28;20184;-74
2021/09/03 11:55:17;;;;;;;1.88;1.77;;;36.20;42.30;;;;;;5065145;28;20187;-74
2021/09/03 11:58:00;;;;;;;2.10;1.55;;;35.80;43.90;;;;;;5071841;28;20182;-74
2021/09/03 12:00:28;;;;;;;1.67;1.67;;;35.80;42.60;;;;;;5074355;28;20211;-74
2021/09/03 12:02:54;;;;;;;1.35;1.35;;;36.10;42.70;;;;;;5068194;28;20182;-74
2021/09/03 12:05:21;;;;;;;2.20;2.10;;;36.40;43.50;;;;;;5074861;28;20201;-74
2021/09/03 12:08:23;;;;;;;1.70;1.50;;;36.90;42.70;;;;;;5069781;28;20790;-74
2021/09/03 12:10:54;;;;;;;1.30;1.30;;;37.40;40.70;;;;;;5032468;28;20212;-74
2021/09/03 12:13:23;;;;;;;1.85;1.75;;;37.80;41.20;;;;;;5024860;28;20258;-75
2021/09/03 12:16:13;;;;;;;2.28;2.03;;;38.00;42.00;;;;;;5028639;28;20187;-74
2021/09/03 12:18:46;;;;;;;2.28;1.70;;;38.30;41.90;;;;;;5028812;28;20339;-74
2021/09/03 12:21:20;;;;;;;1.70;1.60;;;38.90;41.70;;;;;;5023102;28;20215;-74
2021/09/03 12:23:59;;;;;;;1.73;1.63;;;39.40;40.80;;;;;;5031054;28;20638;-75
2021/09/03 12:26:50;;;;;;;1.40;1.40;;;39.90;40.30;;;;;;5030464;28;20215;-75
2021/09/03 12:29:22;;;;;;;3.47;1.92;;;40.40;38.30;;;;;;5024205;28;20705;-74
2021/09/03 12:32:00;;;;;;;2.20;1.50;;;40.80;40.10;;;;;;5007399;28;20222;-73
2021/09/03 12:34:34;;;;;;;2.15;1.70;;;40.90;38.90;;;;;;5025983;28;20237;-74
2021/09/03 12:37:08;;;;;;;1.70;1.70;;;41.20;39.50;;;;;;5027106;28;20168;-75
2021/09/03 12:39:35;;;;;;;1.67;1.58;;;41.30;40.70;;;;;;5027017;28;20699;-75
2021/09/03 12:42:10;;;;;;;1.45;1.45;;;41.30;39.20;;;;;;5024034;28;20213;-74
2021/09/03 12:44:36;;;;;;;1.77;1.67;;;40.90;39.50;;;;;;5038251;28;20233;-73
2021/09/03 12:47:04;;;;;;;2.05;1.45;;;40.70;41.30;;;;;;5067226;28;20209;-73
2021/09/03 12:49:40;;;;;;;1.75;1.67;;;40.70;40.80;;;;;;5066793;28;20218;-75
2021/09/03 12:52:15;;;;;;;1.92;1.77;;;40.60;40.50;;;;;;5065275;28;20182;-74
2021/09/03 12:54:41;;;;;;;1.52;1.50;;;40.50;38.80;;;;;;5070858;28;20193;-74
2021/09/03 12:57:08;;;;;;;1.73;1.63;;;40.40;39.70;;;;;;5065831;28;20174;-76
2021/09/03 12:59:34;;;;;;;1.20;1.20;;;40.40;39.70;;;;;;5064778;28;20565;-77